Latest Weather Observations for Hopetoun Airport

IDV60801

Issued at 8:35 pm EST Thursday 28 August 2014 (issued every 30 minutes, with the page automatically refreshed every 10 minutes)

About weather observations | Map of weather stations | Latest weather observations for VIC | Other Formats
Station Details ID: 077010 Name: HOPETOUN AIRPORT Lat: -35.72 Lon: 142.36 Height: 77.3 m
Data from the previous 72 hours. | See also: Recent months at Hopetoun Airport
Date/Time
EST
Temp
°C
App
Temp
°C
Dew
Point
Rel
Hum
%
Delta-T
°C
Wind Press
QNH
hPa
Press
MSL
hPa
Rain
since 9 am
mm
Dir
 
Spd
km/h
Gust
km/h
Spd
kts
Gust
kts
28/08:30pm 14.8 12.0 5.1 52 4.5 S 9 11 5 6 1028.2 1028.4 0.0
28/08:00pm 14.8 11.9 4.8 51 4.7 S 9 9 5 5 1027.8 1028.0 0.0
28/07:30pm 14.8 12.6 3.6 47 5.1 SSE 4 6 2 3 1027.4 1027.6 0.0
28/07:00pm 17.9 15.6 4.8 42 6.2 SSE 6 7 3 4 1027.2 1027.4 0.0
28/06:30pm 18.7 16.3 4.1 38 7.0 S 6 7 3 4 1027.1 1027.3 0.0
28/06:00pm 19.8 17.3 3.9 35 7.6 S 6 6 3 3 1026.9 1027.0 0.0
28/05:30pm 21.2 18.4 3.4 31 8.5 S 7 9 4 5 1026.8 1026.9 0.0
28/05:00pm 22.0 19.2 3.2 29 9.0 SW 7 13 4 7 1026.8 1026.9 0.0
28/04:30pm 22.4 19.9 4.5 31 8.8 SSW 7 15 4 8 1026.7 1026.8 0.0
28/04:00pm 22.6 19.7 4.6 31 8.8 SSW 9 15 5 8 1026.6 1026.7 0.0
28/03:30pm 22.8 20.0 5.3 32 8.8 SSW 9 17 5 9 1026.8 1026.9 0.0
28/03:00pm 22.7 19.9 5.2 32 8.7 SSW 9 15 5 8 1026.9 1027.0 0.0
28/02:30pm 22.8 20.4 5.3 32 8.8 S 7 15 4 8 1027.0 1027.1 0.0
28/02:00pm 22.3 19.9 5.3 33 8.4 SSE 7 17 4 9 1027.2 1027.4 0.0
28/01:30pm 21.6 19.0 5.9 36 7.9 SW 9 17 5 9 1027.5 1027.7 0.0
28/01:00pm 21.0 18.3 5.4 36 7.7 S 9 15 5 8 1028.0 1028.2 0.0
28/12:30pm 20.7 18.6 5.9 38 7.4 SSW 6 13 3 7 1028.4 1028.6 0.0
28/12:00pm 20.9 19.5 7.2 41 7.0 S 4 11 2 6 1028.8 1029.0 0.0
28/11:30am 19.7 18.6 6.8 43 6.5 ENE 2 9 1 5 1029.1 1029.3 0.0
28/11:00am 19.0 16.9 6.5 44 6.2 N 7 11 4 6 1029.5 1029.7 0.0
28/10:30am 17.9 15.7 6.4 47 5.7 NNE 7 11 4 6 1029.7 1029.8 0.0
28/10:00am 16.2 13.4 6.9 54 4.6 NNE 11 13 6 7 1029.8 1029.9 0.0
28/09:30am 15.0 13.1 7.5 61 3.7 NE 7 9 4 5 1029.8 1029.9 0.0
28/09:00am 12.4 10.6 7.1 70 2.5 ENE 6 7 3 4 1029.8 1029.9 0.0
28/08:30am 10.5 8.8 6.1 74 2.1 E 4 6 2 3 1029.5 1029.7 0.0
28/08:00am 8.4 7.0 5.5 82 1.3 ESE 2 4 1 2 1029.3 1029.5 0.0
28/07:30am 4.9 2.6 2.6 85 0.9 SE 4 4 2 2 1029.1 1029.3 0.0
28/07:00am 5.0 2.5 3.8 92 0.5 SE 6 7 3 4 1028.8 1029.0 0.0
28/06:30am 4.8 2.0 3.3 90 0.6 SE 7 9 4 5 1028.5 1028.7 0.0
28/06:00am 4.7 2.1 3.0 89 0.7 SE 6 7 3 4 1028.3 1028.5 0.0
28/05:30am 4.4 2.1 2.8 89 0.7 SSE 4 6 2 3 1028.1 1028.3 0.0
28/05:00am 4.7 2.4 2.7 87 0.8 S 4 6 2 3 1027.9 1028.1 0.0
28/04:30am 4.4 2.1 2.6 88 0.7 SE 4 6 2 3 1027.9 1028.1 0.0
28/04:00am 4.9 2.2 2.4 84 1.0 SSE 6 6 3 3 1027.8 1028.0 0.0
28/03:30am 4.4 1.7 2.4 87 0.8 S 6 7 3 4 1027.9 1028.1 0.0
28/03:00am 4.6 2.6 2.3 85 0.9 SE 2 6 1 3 1027.8 1028.0 0.0
28/02:30am 5.2 3.3 2.7 84 1.0 SSE 2 4 1 2 1027.9 1028.1 0.0
28/02:00am 7.2 4.7 4.0 80 1.4 S 6 7 3 4 1027.9 1028.1 0.0
28/01:30am 8.1 5.8 4.7 79 1.5 S 6 7 3 4 1028.1 1028.3 0.0
28/01:00am 7.9 5.7 3.4 73 1.9 S 4 6 2 3 1028.2 1028.4 0.0
28/12:30am 9.8 7.5 4.6 70 2.3 S 6 9 3 5 1028.2 1028.4 0.0
28/12:00am 9.3 7.2 3.7 68 2.4 SW 4 6 2 3 1028.2 1028.4 0.0
 
Date/Time
EST
Temp
°C
App
Temp
°C
Dew
Point
Rel
Hum
%
Delta-T
°C
Wind Press
QNH
hPa
Press
MSL
hPa
Rain
since 9 am
mm
Dir
 
Spd
km/h
Gust
km/h
Spd
kts
Gust
kts
27/11:30pm 8.0 6.3 3.8 75 1.8 SW 2 4 1 2 1028.4 1028.6 0.0
27/11:00pm 7.9 6.1 3.2 72 2.0 W 2 4 1 2 1028.2 1028.4 0.0
27/10:30pm 8.1 5.9 3.6 73 1.9 WNW 4 6 2 3 1028.2 1028.4 0.0
27/10:00pm 8.3 6.5 3.6 72 2.0 WSW 2 4 1 2 1028.1 1028.3 0.0
27/09:30pm 8.7 6.2 3.5 70 2.2 WSW 6 9 3 5 1028.0 1028.2 0.0
27/09:27pm 8.8 6.5 3.0 67 2.5 WSW 4 9 2 5 1028.0 1028.2 0.0
27/09:00pm 13.8 11.1 5.7 58 3.8 SE 9 13 5 7 1027.7 1027.9 0.0
27/08:30pm 14.6 10.8 5.9 56 4.2 SE 15 19 8 10 1027.6 1027.8 0.0
27/08:00pm 14.6 11.9 5.7 55 4.2 SSE 9 11 5 6 1027.4 1027.6 0.0
27/07:30pm 15.7 13.4 5.6 51 4.8 SSE 7 9 4 5 1027.2 1027.4 0.0
27/07:00pm 16.8 15.4 5.7 48 5.3 SSE 2 6 1 3 1026.9 1027.0 0.0
27/06:30pm 16.8 15.8 5.7 48 5.4 CALM 0 0 0 0 1026.5 1026.6 0.0
27/06:00pm 19.0 17.1 5.1 40 6.7 S 4 4 2 2 1026.4 1026.5 0.0
27/05:30pm 20.8 18.6 5.2 36 7.7 S 6 9 3 5 1026.2 1026.3 0.0
27/05:00pm 21.4 20.0 5.3 35 8.0 SSE 2 4 1 2 1026.0 1026.1 0.0
27/04:30pm 21.5 19.0 5.0 34 8.2 S 7 11 4 6 1025.9 1026.0 0.0
27/04:00pm 21.8 20.0 5.3 34 8.2 SSW 4 7 2 4 1025.8 1025.9 0.0
27/03:30pm 21.7 19.4 5.6 35 8.1 SSE 7 13 4 7 1026.0 1026.1 0.0
27/03:00pm 21.0 19.2 5.4 36 7.7 S 4 7 2 4 1026.1 1026.2 0.0
27/02:30pm 21.4 19.4 6.1 37 7.7 SE 6 13 3 7 1026.2 1026.3 0.0
27/02:00pm 20.9 19.3 6.4 39 7.3 S 4 9 2 5 1026.3 1026.4 0.0
27/01:30pm 21.4 19.7 6.1 37 7.7 E 4 9 2 5 1026.6 1026.7 0.0
27/01:00pm 20.5 19.3 6.5 40 7.0 S 2 11 1 6 1027.0 1027.1 0.0
27/12:30pm 20.1 18.8 6.1 40 7.0 NE 2 6 1 3 1027.4 1027.6 0.0
27/12:00pm 20.0 18.0 6.4 41 6.8 N 6 11 3 6 1027.8 1028.0 0.0
27/11:30am 19.4 17.2 6.2 42 6.6 N 7 13 4 7 1028.1 1028.3 0.0
27/11:00am 18.5 16.0 6.4 45 6.0 N 9 15 5 8 1028.3 1028.5 0.0
27/10:30am 18.4 15.7 7.2 48 5.7 NNE 11 17 6 9 1028.2 1028.4 0.0
27/10:00am 16.7 14.8 6.8 52 4.9 NNE 6 11 3 6 1028.4 1028.6 0.0
27/09:30am 14.2 12.3 6.8 61 3.6 ENE 6 9 3 5 1028.4 1028.6 0.0
27/09:00am 11.9 10.6 6.0 67 2.8 E 2 6 1 3 1028.4 1028.6 0.0
27/08:30am 8.3 6.4 4.9 79 1.5 S 4 4 2 2 1028.3 1028.5 0.0
27/08:00am 6.3 4.7 4.5 88 0.8 SSE 2 4 1 2 1027.9 1028.1 0.0
27/07:30am 3.7 1.0 2.8 94 0.4 S 6 6 3 3 1027.5 1027.7 0.0
27/07:00am 2.8 0.7 1.5 91 0.5 SE 2 4 1 2 1027.2 1027.4 0.0
27/06:30am 3.4 1.1 2.7 95 0.3 SSE 4 6 2 3 1026.9 1027.0 0.0
27/06:00am 3.6 0.9 2.9 95 0.3 ESE 6 6 3 3 1026.6 1026.7 0.0
27/05:30am 3.0 0.1 1.7 91 0.5 E 6 7 3 4 1026.3 1026.4 0.0
27/05:00am 4.6 1.9 3.7 94 0.4 ESE 7 9 4 5 1026.1 1026.2 0.0
27/04:30am 4.5 2.3 3.3 92 0.5 ESE 4 6 2 3 1026.1 1026.2 0.0
27/04:00am 3.8 1.0 2.3 90 0.6 SE 6 7 3 4 1026.1 1026.2 0.0
27/03:30am 3.5 1.0 1.7 88 0.7 ESE 4 6 2 3 1026.1 1026.2 0.0
27/03:00am 5.5 2.8 3.5 87 0.8 S 7 9 4 5 1026.2 1026.3 0.0
27/02:30am 5.6 3.0 3.4 86 0.9 SSE 6 7 3 4 1026.2 1026.3 0.0
27/02:00am 6.2 4.2 4.2 87 0.9 SSE 4 6 2 3 1026.2 1026.3 0.0
27/01:30am 5.8 3.6 3.3 84 1.0 SSE 4 6 2 3 1026.2 1026.3 0.0
27/01:00am 5.6 3.7 2.6 81 1.2 SE 2 6 1 3 1026.2 1026.3 0.0
27/12:30am 8.3 5.8 4.7 78 1.6 SE 7 7 4 4 1026.3 1026.4 0.0
27/12:00am 7.7 5.0 3.9 77 1.6 SE 7 9 4 5 1026.2 1026.3 0.0
 
Date/Time
EST
Temp
°C
App
Temp
°C
Dew
Point
Rel
Hum
%
Delta-T
°C
Wind Press
QNH
hPa
Press
MSL
hPa
Rain
since 9 am
mm
Dir
 
Spd
km/h
Gust
km/h
Spd
kts
Gust
kts
26/11:30pm 7.7 5.5 3.4 74 1.8 SSE 4 7 2 4 1026.2 1026.3 0.0
26/11:00pm 7.2 4.5 2.7 73 1.9 SSE 6 7 3 4 1026.2 1026.3 0.0
26/10:30pm 8.7 5.7 3.9 72 2.1 SE 9 9 5 5 1026.2 1026.3 0.0
26/10:00pm 9.5 6.1 4.1 69 2.4 SE 11 13 6 7 1026.2 1026.3 0.0
26/09:30pm 10.5 7.1 4.2 65 2.8 SE 11 13 6 7 1026.2 1026.3 0.0
26/09:00pm 11.1 7.7 4.1 62 3.1 SE 11 13 6 7 1026.0 1026.1 0.0
26/08:30pm 10.9 7.8 3.5 60 3.3 SSE 9 11 5 6 1025.8 1025.9 0.0
26/08:00pm 12.8 10.3 4.5 57 3.8 SSE 7 7 4 4 1025.6 1025.7 0.0
26/07:30pm 13.7 11.1 4.0 52 4.4 S 7 9 4 5 1025.4 1025.5 0.0
26/07:00pm 14.0 11.5 3.8 50 4.6 S 6 7 3 4 1025.2 1025.3 0.0
26/06:30pm 15.1 13.4 4.2 48 5.1 ESE 2 2 1 1 1025.0 1025.1 0.0
26/06:00pm 16.7 14.4 4.7 45 5.7 E 6 6 3 3 1024.9 1025.0 0.0
26/05:30pm 18.6 15.9 3.6 37 7.1 ESE 7 9 4 5 1024.7 1024.8 0.0
26/05:00pm 19.4 16.4 4.0 36 7.3 E 9 13 5 7 1024.5 1024.6 0.0
26/04:30pm 19.5 16.9 4.0 36 7.4 SE 7 15 4 8 1024.3 1024.4 0.0
26/04:00pm 19.6 15.8 3.7 35 7.5 ESE 13 20 7 11 1024.5 1024.6 0.0
26/03:30pm 19.7 17.0 3.8 35 7.6 ENE 7 13 4 7 1024.5 1024.6 0.0
26/03:00pm 19.5 17.0 3.6 35 7.5 E 6 13 3 7 1024.6 1024.7 0.0
26/02:30pm 19.2 16.6 4.2 37 7.2 S 7 15 4 8 1024.8 1024.9 0.0
26/02:00pm 19.2 16.9 5.6 41 6.7 S 7 17 4 9 1025.0 1025.1 0.0
26/01:30pm 18.3 15.5 5.2 42 6.4 S 9 22 5 12 1025.3 1025.4 0.0
26/01:00pm 17.8 15.7 6.0 46 5.8 SSE 6 15 3 8 1025.8 1025.9 0.0
26/12:30pm 16.9 14.8 5.8 48 5.4 SSE 6 11 3 6 1026.3 1026.4 0.0
26/12:00pm 17.0 15.1 6.5 50 5.2 S 6 13 3 7 1026.9 1027.0 0.0
26/11:30am 15.8 13.9 6.5 54 4.6 E 6 9 3 5 1027.2 1027.4 0.0
26/11:00am 14.8 13.3 6.6 58 4.0 SSE 4 9 2 5 1027.5 1027.7 0.0
26/10:30am 14.1 12.1 6.9 62 3.5 ESE 7 11 4 6 1027.6 1027.8 0.0
26/10:00am 12.5 9.8 7.2 70 2.6 SE 11 17 6 9 1027.8 1028.0 0.0
26/09:30am 11.0 8.2 7.1 77 1.9 SSE 11 15 6 8 1027.8 1028.0 0.0
26/09:00am 8.9 6.4 6.7 86 1.0 SSE 9 15 5 8 1027.8 1028.0 0.0
26/08:30am 6.3 3.1 5.1 92 0.5 S 11 15 6 8 1027.9 1028.1 0.0
26/08:00am 5.1 1.8 4.4 95 0.3 S 11 13 6 7 1027.8 1028.0 0.0
26/07:30am 4.0 1.3 3.6 97 0.2 S 7 11 4 6 1027.5 1027.7 0.0
26/07:00am 3.3 0.1 2.9 97 0.2 S 9 13 5 7 1027.2 1027.4 0.0
26/06:30am 2.9 0.1 2.3 96 0.2 S 6 9 3 5 1026.9 1027.0 0.0
26/06:00am 3.5 0.3 3.1 97 0.2 S 9 11 5 6 1026.6 1026.7 0.0
26/05:30am 3.4 0.6 3.0 97 0.2 S 7 11 4 6 1026.5 1026.6 0.0
26/05:00am 1.9 -1.2 1.2 95 0.3 SSW 7 9 4 5 1026.5 1026.6 0.0
26/04:30am 3.4 0.1 2.7 95 0.3 S 9 13 5 7 1026.4 1026.5 0.0
26/04:00am 4.6 1.9 3.7 94 0.4 S 7 11 4 6 1026.3 1026.4 0.0
26/03:30am 4.7 1.3 4.0 95 0.3 S 11 15 6 8 1026.5 1026.6 0.0
26/03:00am 4.5 1.4 3.8 95 0.3 S 9 13 5 7 1026.7 1026.8 0.0
26/02:30am 3.7 0.4 2.7 93 0.4 S 9 11 5 6 1027.0 1027.1 0.0
26/02:00am 6.0 2.7 4.8 92 0.5 S 11 13 6 7 1027.1 1027.3 0.0
26/01:30am 6.4 2.8 5.2 92 0.5 S 13 19 7 10 1027.3 1027.5 0.0
26/01:00am 6.5 2.9 5.1 91 0.6 S 13 15 7 8 1027.3 1027.5 0.0
26/12:30am 6.7 3.5 5.3 91 0.6 S 11 15 6 8 1027.3 1027.5 0.0
26/12:00am 7.4 4.4 5.9 90 0.7 S 11 15 6 8 1027.2 1027.4 0.0
 
Date/Time
EST
Temp
°C
App
Temp
°C
Dew
Point
Rel
Hum
%
Delta-T
°C
Wind Press
QNH
hPa
Press
MSL
hPa
Rain
since 9 am
mm
Dir
 
Spd
km/h
Gust
km/h
Spd
kts
Gust
kts
25/11:30pm 7.7 4.7 6.0 89 0.8 S 11 17 6 9 1027.1 1027.3 0.0
25/11:00pm 8.3 5.0 6.3 87 0.9 S 13 17 7 9 1027.3 1027.5 0.0
25/10:30pm 8.6 5.3 6.2 85 1.1 S 13 19 7 10 1027.5 1027.7 0.0
25/10:00pm 9.3 6.0 6.4 82 1.3 S 13 17 7 9 1027.5 1027.7 0.0
25/09:30pm 9.7 6.4 6.4 80 1.5 S 13 19 7 10 1027.4 1027.6 0.0
25/09:00pm 9.9 7.0 6.3 78 1.7 S 11 15 6 8 1027.5 1027.7 0.0

Other Formats:

Comma delimited format used in spreadsheet applications
http://www.bom.gov.au/fwo/IDV60801/IDV60801.94838.axf

JavaScript Object Notation format (JSON) in row-major order
http://www.bom.gov.au/fwo/IDV60801/IDV60801.94838.json